<?xml version="1.0" encoding="UTF-8" standalone="no" ?>
<gpx xmlns="http://www.topografix.com/GPX/1/1" xmlns:xsi="http://www.w3.org/2001/XMLSchema-instance" xsi:schemaLocation="http://www.topografix.com/GPX/1/1 http://www.topografix.com/GPX/1/1/gpx.xsd" version="1.1" creator="VisuGPX - https://www.visugpx.com">
  <metadata>
    <name>La Pyramide de Falicon</name>
  </metadata>
  <wpt lat="43.74191" lon="7.25753">
    <ele>353</ele>
    <name><![CDATA[Chemin de Châteaurenard, barrière]]></name>
  </wpt>
  <wpt lat="43.74403" lon="7.25642">
    <ele>384</ele>
    <name><![CDATA[Embranchement, monter à droite]]></name>
  </wpt>
  <wpt lat="43.74535" lon="7.25718">
    <ele>405</ele>
    <name><![CDATA[Carrefour, suivre GR en face]]></name>
  </wpt>
  <wpt lat="43.74713" lon="7.2588">
    <ele>452</ele>
    <name><![CDATA[Ruine, quitter le GR, prendre à droite]]></name>
  </wpt>
  <wpt lat="43.74984" lon="7.26041">
    <ele>453</ele>
    <name><![CDATA[Pyramide de Falicon]]></name>
  </wpt>
  <wpt lat="43.75898" lon="7.25391">
    <ele>556</ele>
    <name><![CDATA[Ligne haute tension, prendre sentier à gauche]]></name>
  </wpt>
  <wpt lat="43.74422" lon="7.25717">
    <ele>385</ele>
    <name><![CDATA[Oratoire]]></name>
  </wpt>
  <wpt lat="43.7419" lon="7.25758">
    <ele>352</ele>
    <name><![CDATA[Chemin de Châteaurenard, barrière]]></name>
  </wpt>
  <trk>
    <name><![CDATA[La Pyramide de Falicon]]></name>
    <trkseg>
      <trkpt lat="43.74191" lon="7.25753">
        <ele>353</ele>
        <time>2020-06-14T11:11:46+02:00</time>
      </trkpt>
      <trkpt lat="43.74193" lon="7.25706">
        <ele>360</ele>
        <time>2020-06-14T11:11:51+02:00</time>
      </trkpt>
      <trkpt lat="43.74211" lon="7.25685">
        <ele>367</ele>
        <time>2020-06-14T11:11:56+02:00</time>
      </trkpt>
      <trkpt lat="43.74235" lon="7.25664">
        <ele>373</ele>
        <time>2020-06-14T11:12:01+02:00</time>
      </trkpt>
      <trkpt lat="43.74288" lon="7.25621">
        <ele>379</ele>
        <time>2020-06-14T11:12:06+02:00</time>
      </trkpt>
      <trkpt lat="43.74327" lon="7.25624">
        <ele>382</ele>
        <time>2020-06-14T11:12:11+02:00</time>
      </trkpt>
      <trkpt lat="43.74338" lon="7.2564">
        <ele>382</ele>
        <time>2020-06-14T11:12:16+02:00</time>
      </trkpt>
      <trkpt lat="43.74352" lon="7.25644">
        <ele>382</ele>
        <time>2020-06-14T11:12:21+02:00</time>
      </trkpt>
      <trkpt lat="43.74373" lon="7.25648">
        <ele>383</ele>
        <time>2020-06-14T11:12:26+02:00</time>
      </trkpt>
      <trkpt lat="43.7439" lon="7.25649">
        <ele>383</ele>
        <time>2020-06-14T11:12:31+02:00</time>
      </trkpt>
      <trkpt lat="43.74403" lon="7.25642">
        <ele>384</ele>
        <time>2020-06-14T11:12:36+02:00</time>
      </trkpt>
      <trkpt lat="43.74413" lon="7.25659">
        <ele>383</ele>
        <time>2020-06-14T11:12:41+02:00</time>
      </trkpt>
      <trkpt lat="43.74424" lon="7.2567">
        <ele>384</ele>
        <time>2020-06-14T11:12:46+02:00</time>
      </trkpt>
      <trkpt lat="43.74434" lon="7.25678">
        <ele>385</ele>
        <time>2020-06-14T11:12:51+02:00</time>
      </trkpt>
      <trkpt lat="43.74467" lon="7.25684">
        <ele>390</ele>
        <time>2020-06-14T11:12:56+02:00</time>
      </trkpt>
      <trkpt lat="43.74483" lon="7.25692">
        <ele>393</ele>
        <time>2020-06-14T11:13:01+02:00</time>
      </trkpt>
      <trkpt lat="43.74498" lon="7.25698">
        <ele>396</ele>
        <time>2020-06-14T11:13:06+02:00</time>
      </trkpt>
      <trkpt lat="43.74511" lon="7.25709">
        <ele>399</ele>
        <time>2020-06-14T11:13:11+02:00</time>
      </trkpt>
      <trkpt lat="43.74525" lon="7.25715">
        <ele>402</ele>
        <time>2020-06-14T11:13:16+02:00</time>
      </trkpt>
      <trkpt lat="43.74535" lon="7.25718">
        <ele>405</ele>
        <time>2020-06-14T11:13:21+02:00</time>
      </trkpt>
      <trkpt lat="43.74545" lon="7.25746">
        <ele>410</ele>
        <time>2020-06-14T11:13:26+02:00</time>
      </trkpt>
      <trkpt lat="43.74563" lon="7.25788">
        <ele>420</ele>
        <time>2020-06-14T11:13:31+02:00</time>
      </trkpt>
      <trkpt lat="43.74562" lon="7.25807">
        <ele>422</ele>
        <time>2020-06-14T11:13:36+02:00</time>
      </trkpt>
      <trkpt lat="43.74564" lon="7.25822">
        <ele>425</ele>
        <time>2020-06-14T11:13:41+02:00</time>
      </trkpt>
      <trkpt lat="43.74569" lon="7.25838">
        <ele>428</ele>
        <time>2020-06-14T11:13:46+02:00</time>
      </trkpt>
      <trkpt lat="43.74577" lon="7.25852">
        <ele>430</ele>
        <time>2020-06-14T11:13:51+02:00</time>
      </trkpt>
      <trkpt lat="43.74579" lon="7.25869">
        <ele>430</ele>
        <time>2020-06-14T11:13:56+02:00</time>
      </trkpt>
      <trkpt lat="43.74595" lon="7.25873">
        <ele>433</ele>
        <time>2020-06-14T11:14:01+02:00</time>
      </trkpt>
      <trkpt lat="43.74608" lon="7.25872">
        <ele>435</ele>
        <time>2020-06-14T11:14:06+02:00</time>
      </trkpt>
      <trkpt lat="43.74636" lon="7.25856">
        <ele>439</ele>
        <time>2020-06-14T11:14:11+02:00</time>
      </trkpt>
      <trkpt lat="43.7465" lon="7.25842">
        <ele>442</ele>
        <time>2020-06-14T11:14:16+02:00</time>
      </trkpt>
      <trkpt lat="43.74656" lon="7.25847">
        <ele>442</ele>
        <time>2020-06-14T11:14:21+02:00</time>
      </trkpt>
      <trkpt lat="43.74676" lon="7.25867">
        <ele>445</ele>
        <time>2020-06-14T11:14:26+02:00</time>
      </trkpt>
      <trkpt lat="43.74686" lon="7.25877">
        <ele>447</ele>
        <time>2020-06-14T11:14:31+02:00</time>
      </trkpt>
      <trkpt lat="43.74684" lon="7.25896">
        <ele>447</ele>
        <time>2020-06-14T11:14:36+02:00</time>
      </trkpt>
      <trkpt lat="43.74688" lon="7.2589">
        <ele>447</ele>
        <time>2020-06-14T11:14:41+02:00</time>
      </trkpt>
      <trkpt lat="43.74692" lon="7.25889">
        <ele>448</ele>
        <time>2020-06-14T11:14:46+02:00</time>
      </trkpt>
      <trkpt lat="43.74698" lon="7.25889">
        <ele>449</ele>
        <time>2020-06-14T11:14:51+02:00</time>
      </trkpt>
      <trkpt lat="43.74709" lon="7.25892">
        <ele>451</ele>
        <time>2020-06-14T11:14:56+02:00</time>
      </trkpt>
      <trkpt lat="43.74713" lon="7.2588">
        <ele>452</ele>
        <time>2020-06-14T11:15:01+02:00</time>
      </trkpt>
      <trkpt lat="43.74724" lon="7.25887">
        <ele>454</ele>
        <time>2020-06-14T11:15:06+02:00</time>
      </trkpt>
      <trkpt lat="43.74739" lon="7.25904">
        <ele>456</ele>
        <time>2020-06-14T11:15:11+02:00</time>
      </trkpt>
      <trkpt lat="43.74761" lon="7.2592">
        <ele>458</ele>
        <time>2020-06-14T11:15:16+02:00</time>
      </trkpt>
      <trkpt lat="43.74787" lon="7.25935">
        <ele>456</ele>
        <time>2020-06-14T11:15:21+02:00</time>
      </trkpt>
      <trkpt lat="43.74799" lon="7.25942">
        <ele>456</ele>
        <time>2020-06-14T11:15:26+02:00</time>
      </trkpt>
      <trkpt lat="43.74811" lon="7.2594">
        <ele>458</ele>
        <time>2020-06-14T11:15:31+02:00</time>
      </trkpt>
      <trkpt lat="43.74827" lon="7.25947">
        <ele>458</ele>
        <time>2020-06-14T11:15:36+02:00</time>
      </trkpt>
      <trkpt lat="43.74851" lon="7.25959">
        <ele>457</ele>
        <time>2020-06-14T11:15:41+02:00</time>
      </trkpt>
      <trkpt lat="43.74856" lon="7.2596">
        <ele>457</ele>
        <time>2020-06-14T11:15:46+02:00</time>
      </trkpt>
      <trkpt lat="43.74862" lon="7.25966">
        <ele>457</ele>
        <time>2020-06-14T11:15:51+02:00</time>
      </trkpt>
      <trkpt lat="43.74885" lon="7.25972">
        <ele>458</ele>
        <time>2020-06-14T11:15:56+02:00</time>
      </trkpt>
      <trkpt lat="43.74898" lon="7.25979">
        <ele>459</ele>
        <time>2020-06-14T11:16:01+02:00</time>
      </trkpt>
      <trkpt lat="43.74903" lon="7.25978">
        <ele>459</ele>
        <time>2020-06-14T11:16:06+02:00</time>
      </trkpt>
      <trkpt lat="43.74919" lon="7.25991">
        <ele>459</ele>
        <time>2020-06-14T11:16:11+02:00</time>
      </trkpt>
      <trkpt lat="43.74928" lon="7.25996">
        <ele>460</ele>
        <time>2020-06-14T11:16:16+02:00</time>
      </trkpt>
      <trkpt lat="43.7494" lon="7.26">
        <ele>461</ele>
        <time>2020-06-14T11:16:21+02:00</time>
      </trkpt>
      <trkpt lat="43.74953" lon="7.26007">
        <ele>461</ele>
        <time>2020-06-14T11:16:26+02:00</time>
      </trkpt>
      <trkpt lat="43.74965" lon="7.26021">
        <ele>458</ele>
        <time>2020-06-14T11:16:31+02:00</time>
      </trkpt>
      <trkpt lat="43.74974" lon="7.26032">
        <ele>455</ele>
        <time>2020-06-14T11:16:36+02:00</time>
      </trkpt>
      <trkpt lat="43.74978" lon="7.26032">
        <ele>456</ele>
        <time>2020-06-14T11:16:41+02:00</time>
      </trkpt>
      <trkpt lat="43.74984" lon="7.26041">
        <ele>453</ele>
        <time>2020-06-14T11:16:46+02:00</time>
      </trkpt>
      <trkpt lat="43.74987" lon="7.26034">
        <ele>456</ele>
        <time>2020-06-14T11:16:51+02:00</time>
      </trkpt>
      <trkpt lat="43.75001" lon="7.2603">
        <ele>459</ele>
        <time>2020-06-14T11:16:56+02:00</time>
      </trkpt>
      <trkpt lat="43.75013" lon="7.26019">
        <ele>463</ele>
        <time>2020-06-14T11:17:01+02:00</time>
      </trkpt>
      <trkpt lat="43.75025" lon="7.26014">
        <ele>465</ele>
        <time>2020-06-14T11:17:06+02:00</time>
      </trkpt>
      <trkpt lat="43.75034" lon="7.26008">
        <ele>467</ele>
        <time>2020-06-14T11:17:11+02:00</time>
      </trkpt>
      <trkpt lat="43.75047" lon="7.26002">
        <ele>469</ele>
        <time>2020-06-14T11:17:16+02:00</time>
      </trkpt>
      <trkpt lat="43.75051" lon="7.25994">
        <ele>471</ele>
        <time>2020-06-14T11:17:21+02:00</time>
      </trkpt>
      <trkpt lat="43.75058" lon="7.2599">
        <ele>472</ele>
        <time>2020-06-14T11:17:26+02:00</time>
      </trkpt>
      <trkpt lat="43.75075" lon="7.25982">
        <ele>473</ele>
        <time>2020-06-14T11:17:31+02:00</time>
      </trkpt>
      <trkpt lat="43.75081" lon="7.25979">
        <ele>473</ele>
        <time>2020-06-14T11:17:36+02:00</time>
      </trkpt>
      <trkpt lat="43.75089" lon="7.25976">
        <ele>474</ele>
        <time>2020-06-14T11:17:41+02:00</time>
      </trkpt>
      <trkpt lat="43.75093" lon="7.25968">
        <ele>476</ele>
        <time>2020-06-14T11:17:46+02:00</time>
      </trkpt>
      <trkpt lat="43.75097" lon="7.25965">
        <ele>476</ele>
        <time>2020-06-14T11:17:51+02:00</time>
      </trkpt>
      <trkpt lat="43.75099" lon="7.25955">
        <ele>478</ele>
        <time>2020-06-14T11:17:56+02:00</time>
      </trkpt>
      <trkpt lat="43.75104" lon="7.25949">
        <ele>479</ele>
        <time>2020-06-14T11:18:01+02:00</time>
      </trkpt>
      <trkpt lat="43.75111" lon="7.25946">
        <ele>480</ele>
        <time>2020-06-14T11:18:06+02:00</time>
      </trkpt>
      <trkpt lat="43.75121" lon="7.25946">
        <ele>480</ele>
        <time>2020-06-14T11:18:11+02:00</time>
      </trkpt>
      <trkpt lat="43.7513" lon="7.25947">
        <ele>481</ele>
        <time>2020-06-14T11:18:16+02:00</time>
      </trkpt>
      <trkpt lat="43.75142" lon="7.25948">
        <ele>482</ele>
        <time>2020-06-14T11:18:21+02:00</time>
      </trkpt>
      <trkpt lat="43.75168" lon="7.25943">
        <ele>484</ele>
        <time>2020-06-14T11:18:26+02:00</time>
      </trkpt>
      <trkpt lat="43.75173" lon="7.25949">
        <ele>484</ele>
        <time>2020-06-14T11:18:31+02:00</time>
      </trkpt>
      <trkpt lat="43.75184" lon="7.25951">
        <ele>485</ele>
        <time>2020-06-14T11:18:36+02:00</time>
      </trkpt>
      <trkpt lat="43.75201" lon="7.25947">
        <ele>487</ele>
        <time>2020-06-14T11:18:41+02:00</time>
      </trkpt>
      <trkpt lat="43.75216" lon="7.25945">
        <ele>489</ele>
        <time>2020-06-14T11:18:46+02:00</time>
      </trkpt>
      <trkpt lat="43.7523" lon="7.25944">
        <ele>490</ele>
        <time>2020-06-14T11:18:51+02:00</time>
      </trkpt>
      <trkpt lat="43.7524" lon="7.25947">
        <ele>491</ele>
        <time>2020-06-14T11:18:56+02:00</time>
      </trkpt>
      <trkpt lat="43.75247" lon="7.25935">
        <ele>493</ele>
        <time>2020-06-14T11:19:01+02:00</time>
      </trkpt>
      <trkpt lat="43.75259" lon="7.25884">
        <ele>493</ele>
        <time>2020-06-14T11:19:06+02:00</time>
      </trkpt>
      <trkpt lat="43.7527" lon="7.25838">
        <ele>490</ele>
        <time>2020-06-14T11:19:11+02:00</time>
      </trkpt>
      <trkpt lat="43.75279" lon="7.25835">
        <ele>490</ele>
        <time>2020-06-14T11:19:16+02:00</time>
      </trkpt>
      <trkpt lat="43.75294" lon="7.25827">
        <ele>491</ele>
        <time>2020-06-14T11:19:21+02:00</time>
      </trkpt>
      <trkpt lat="43.75311" lon="7.25816">
        <ele>492</ele>
        <time>2020-06-14T11:19:26+02:00</time>
      </trkpt>
      <trkpt lat="43.75324" lon="7.25812">
        <ele>493</ele>
        <time>2020-06-14T11:19:31+02:00</time>
      </trkpt>
      <trkpt lat="43.75333" lon="7.25799">
        <ele>494</ele>
        <time>2020-06-14T11:19:36+02:00</time>
      </trkpt>
      <trkpt lat="43.7534" lon="7.25788">
        <ele>493</ele>
        <time>2020-06-14T11:19:41+02:00</time>
      </trkpt>
      <trkpt lat="43.75354" lon="7.25781">
        <ele>493</ele>
        <time>2020-06-14T11:19:46+02:00</time>
      </trkpt>
      <trkpt lat="43.75369" lon="7.25784">
        <ele>493</ele>
        <time>2020-06-14T11:19:51+02:00</time>
      </trkpt>
      <trkpt lat="43.75377" lon="7.25796">
        <ele>495</ele>
        <time>2020-06-14T11:19:56+02:00</time>
      </trkpt>
      <trkpt lat="43.75389" lon="7.25796">
        <ele>495</ele>
        <time>2020-06-14T11:20:01+02:00</time>
      </trkpt>
      <trkpt lat="43.754" lon="7.25805">
        <ele>496</ele>
        <time>2020-06-14T11:20:06+02:00</time>
      </trkpt>
      <trkpt lat="43.7541" lon="7.25806">
        <ele>497</ele>
        <time>2020-06-14T11:20:11+02:00</time>
      </trkpt>
      <trkpt lat="43.75424" lon="7.25798">
        <ele>496</ele>
        <time>2020-06-14T11:20:16+02:00</time>
      </trkpt>
      <trkpt lat="43.75435" lon="7.258">
        <ele>497</ele>
        <time>2020-06-14T11:20:21+02:00</time>
      </trkpt>
      <trkpt lat="43.75444" lon="7.25798">
        <ele>497</ele>
        <time>2020-06-14T11:20:26+02:00</time>
      </trkpt>
      <trkpt lat="43.75455" lon="7.25793">
        <ele>498</ele>
        <time>2020-06-14T11:20:31+02:00</time>
      </trkpt>
      <trkpt lat="43.75464" lon="7.25785">
        <ele>498</ele>
        <time>2020-06-14T11:20:36+02:00</time>
      </trkpt>
      <trkpt lat="43.75473" lon="7.25781">
        <ele>498</ele>
        <time>2020-06-14T11:20:41+02:00</time>
      </trkpt>
      <trkpt lat="43.75478" lon="7.2578">
        <ele>499</ele>
        <time>2020-06-14T11:20:46+02:00</time>
      </trkpt>
      <trkpt lat="43.75483" lon="7.25776">
        <ele>499</ele>
        <time>2020-06-14T11:20:51+02:00</time>
      </trkpt>
      <trkpt lat="43.75488" lon="7.25758">
        <ele>500</ele>
        <time>2020-06-14T11:20:56+02:00</time>
      </trkpt>
      <trkpt lat="43.75492" lon="7.25733">
        <ele>500</ele>
        <time>2020-06-14T11:21:01+02:00</time>
      </trkpt>
      <trkpt lat="43.75506" lon="7.25719">
        <ele>502</ele>
        <time>2020-06-14T11:21:06+02:00</time>
      </trkpt>
      <trkpt lat="43.75514" lon="7.25712">
        <ele>504</ele>
        <time>2020-06-14T11:21:11+02:00</time>
      </trkpt>
      <trkpt lat="43.75522" lon="7.2571">
        <ele>506</ele>
        <time>2020-06-14T11:21:16+02:00</time>
      </trkpt>
      <trkpt lat="43.75529" lon="7.25681">
        <ele>508</ele>
        <time>2020-06-14T11:21:21+02:00</time>
      </trkpt>
      <trkpt lat="43.7553" lon="7.25637">
        <ele>508</ele>
        <time>2020-06-14T11:21:26+02:00</time>
      </trkpt>
      <trkpt lat="43.75543" lon="7.25608">
        <ele>510</ele>
        <time>2020-06-14T11:21:31+02:00</time>
      </trkpt>
      <trkpt lat="43.75552" lon="7.25594">
        <ele>511</ele>
        <time>2020-06-14T11:21:36+02:00</time>
      </trkpt>
      <trkpt lat="43.75562" lon="7.25583">
        <ele>514</ele>
        <time>2020-06-14T11:21:41+02:00</time>
      </trkpt>
      <trkpt lat="43.7557" lon="7.25583">
        <ele>516</ele>
        <time>2020-06-14T11:21:46+02:00</time>
      </trkpt>
      <trkpt lat="43.75577" lon="7.25574">
        <ele>516</ele>
        <time>2020-06-14T11:21:51+02:00</time>
      </trkpt>
      <trkpt lat="43.75592" lon="7.25572">
        <ele>520</ele>
        <time>2020-06-14T11:21:56+02:00</time>
      </trkpt>
      <trkpt lat="43.75612" lon="7.25564">
        <ele>523</ele>
        <time>2020-06-14T11:22:01+02:00</time>
      </trkpt>
      <trkpt lat="43.75631" lon="7.25551">
        <ele>525</ele>
        <time>2020-06-14T11:22:06+02:00</time>
      </trkpt>
      <trkpt lat="43.75645" lon="7.25538">
        <ele>525</ele>
        <time>2020-06-14T11:22:11+02:00</time>
      </trkpt>
      <trkpt lat="43.75671" lon="7.25531">
        <ele>530</ele>
        <time>2020-06-14T11:22:16+02:00</time>
      </trkpt>
      <trkpt lat="43.75683" lon="7.25521">
        <ele>530</ele>
        <time>2020-06-14T11:22:21+02:00</time>
      </trkpt>
      <trkpt lat="43.7569" lon="7.25517">
        <ele>531</ele>
        <time>2020-06-14T11:22:26+02:00</time>
      </trkpt>
      <trkpt lat="43.75698" lon="7.25516">
        <ele>532</ele>
        <time>2020-06-14T11:22:31+02:00</time>
      </trkpt>
      <trkpt lat="43.75734" lon="7.25498">
        <ele>537</ele>
        <time>2020-06-14T11:22:36+02:00</time>
      </trkpt>
      <trkpt lat="43.75748" lon="7.25494">
        <ele>539</ele>
        <time>2020-06-14T11:22:41+02:00</time>
      </trkpt>
      <trkpt lat="43.75762" lon="7.25486">
        <ele>541</ele>
        <time>2020-06-14T11:22:46+02:00</time>
      </trkpt>
      <trkpt lat="43.75777" lon="7.25472">
        <ele>542</ele>
        <time>2020-06-14T11:22:51+02:00</time>
      </trkpt>
      <trkpt lat="43.75793" lon="7.25461">
        <ele>544</ele>
        <time>2020-06-14T11:22:56+02:00</time>
      </trkpt>
      <trkpt lat="43.75808" lon="7.25451">
        <ele>546</ele>
        <time>2020-06-14T11:23:01+02:00</time>
      </trkpt>
      <trkpt lat="43.75818" lon="7.25448">
        <ele>549</ele>
        <time>2020-06-14T11:23:06+02:00</time>
      </trkpt>
      <trkpt lat="43.75827" lon="7.25439">
        <ele>550</ele>
        <time>2020-06-14T11:23:11+02:00</time>
      </trkpt>
      <trkpt lat="43.75839" lon="7.25433">
        <ele>552</ele>
        <time>2020-06-14T11:23:16+02:00</time>
      </trkpt>
      <trkpt lat="43.75851" lon="7.25431">
        <ele>554</ele>
        <time>2020-06-14T11:23:21+02:00</time>
      </trkpt>
      <trkpt lat="43.75863" lon="7.25425">
        <ele>556</ele>
        <time>2020-06-14T11:23:26+02:00</time>
      </trkpt>
      <trkpt lat="43.75882" lon="7.25409">
        <ele>557</ele>
        <time>2020-06-14T11:23:31+02:00</time>
      </trkpt>
      <trkpt lat="43.75898" lon="7.25391">
        <ele>556</ele>
        <time>2020-06-14T11:23:36+02:00</time>
      </trkpt>
      <trkpt lat="43.7589" lon="7.2539">
        <ele>554</ele>
        <time>2020-06-14T11:23:41+02:00</time>
      </trkpt>
      <trkpt lat="43.75872" lon="7.25402">
        <ele>553</ele>
        <time>2020-06-14T11:23:46+02:00</time>
      </trkpt>
      <trkpt lat="43.75857" lon="7.25405">
        <ele>550</ele>
        <time>2020-06-14T11:23:51+02:00</time>
      </trkpt>
      <trkpt lat="43.75842" lon="7.25418">
        <ele>550</ele>
        <time>2020-06-14T11:23:56+02:00</time>
      </trkpt>
      <trkpt lat="43.75831" lon="7.25413">
        <ele>546</ele>
        <time>2020-06-14T11:24:01+02:00</time>
      </trkpt>
      <trkpt lat="43.7582" lon="7.2542">
        <ele>544</ele>
        <time>2020-06-14T11:24:06+02:00</time>
      </trkpt>
      <trkpt lat="43.75816" lon="7.25417">
        <ele>542</ele>
        <time>2020-06-14T11:24:11+02:00</time>
      </trkpt>
      <trkpt lat="43.75815" lon="7.25411">
        <ele>541</ele>
        <time>2020-06-14T11:24:16+02:00</time>
      </trkpt>
      <trkpt lat="43.75797" lon="7.25393">
        <ele>530</ele>
        <time>2020-06-14T11:24:21+02:00</time>
      </trkpt>
      <trkpt lat="43.75787" lon="7.25395">
        <ele>527</ele>
        <time>2020-06-14T11:24:26+02:00</time>
      </trkpt>
      <trkpt lat="43.75778" lon="7.25399">
        <ele>526</ele>
        <time>2020-06-14T11:24:31+02:00</time>
      </trkpt>
      <trkpt lat="43.75769" lon="7.254">
        <ele>523</ele>
        <time>2020-06-14T11:24:36+02:00</time>
      </trkpt>
      <trkpt lat="43.7576" lon="7.25408">
        <ele>523</ele>
        <time>2020-06-14T11:24:41+02:00</time>
      </trkpt>
      <trkpt lat="43.7575" lon="7.25413">
        <ele>522</ele>
        <time>2020-06-14T11:24:46+02:00</time>
      </trkpt>
      <trkpt lat="43.75738" lon="7.25424">
        <ele>520</ele>
        <time>2020-06-14T11:24:51+02:00</time>
      </trkpt>
      <trkpt lat="43.75733" lon="7.2542">
        <ele>518</ele>
        <time>2020-06-14T11:24:56+02:00</time>
      </trkpt>
      <trkpt lat="43.75734" lon="7.25415">
        <ele>517</ele>
        <time>2020-06-14T11:25:01+02:00</time>
      </trkpt>
      <trkpt lat="43.75757" lon="7.25387">
        <ele>516</ele>
        <time>2020-06-14T11:25:06+02:00</time>
      </trkpt>
      <trkpt lat="43.75759" lon="7.25378">
        <ele>514</ele>
        <time>2020-06-14T11:25:11+02:00</time>
      </trkpt>
      <trkpt lat="43.75752" lon="7.25375">
        <ele>512</ele>
        <time>2020-06-14T11:25:16+02:00</time>
      </trkpt>
      <trkpt lat="43.75747" lon="7.25381">
        <ele>512</ele>
        <time>2020-06-14T11:25:21+02:00</time>
      </trkpt>
      <trkpt lat="43.75744" lon="7.2538">
        <ele>511</ele>
        <time>2020-06-14T11:25:26+02:00</time>
      </trkpt>
      <trkpt lat="43.75747" lon="7.25364">
        <ele>507</ele>
        <time>2020-06-14T11:25:31+02:00</time>
      </trkpt>
      <trkpt lat="43.75758" lon="7.25351">
        <ele>507</ele>
        <time>2020-06-14T11:25:36+02:00</time>
      </trkpt>
      <trkpt lat="43.75759" lon="7.25335">
        <ele>503</ele>
        <time>2020-06-14T11:25:41+02:00</time>
      </trkpt>
      <trkpt lat="43.7575" lon="7.25333">
        <ele>500</ele>
        <time>2020-06-14T11:25:46+02:00</time>
      </trkpt>
      <trkpt lat="43.7576" lon="7.25309">
        <ele>495</ele>
        <time>2020-06-14T11:25:51+02:00</time>
      </trkpt>
      <trkpt lat="43.75768" lon="7.25298">
        <ele>494</ele>
        <time>2020-06-14T11:25:56+02:00</time>
      </trkpt>
      <trkpt lat="43.75763" lon="7.25295">
        <ele>492</ele>
        <time>2020-06-14T11:26:01+02:00</time>
      </trkpt>
      <trkpt lat="43.7575" lon="7.253">
        <ele>490</ele>
        <time>2020-06-14T11:26:06+02:00</time>
      </trkpt>
      <trkpt lat="43.75756" lon="7.25278">
        <ele>484</ele>
        <time>2020-06-14T11:26:11+02:00</time>
      </trkpt>
      <trkpt lat="43.75768" lon="7.25262">
        <ele>483</ele>
        <time>2020-06-14T11:26:16+02:00</time>
      </trkpt>
      <trkpt lat="43.75787" lon="7.25241">
        <ele>481</ele>
        <time>2020-06-14T11:26:21+02:00</time>
      </trkpt>
      <trkpt lat="43.75774" lon="7.25226">
        <ele>474</ele>
        <time>2020-06-14T11:26:26+02:00</time>
      </trkpt>
      <trkpt lat="43.75762" lon="7.25224">
        <ele>470</ele>
        <time>2020-06-14T11:26:31+02:00</time>
      </trkpt>
      <trkpt lat="43.75758" lon="7.25221">
        <ele>468</ele>
        <time>2020-06-14T11:26:36+02:00</time>
      </trkpt>
      <trkpt lat="43.75751" lon="7.25222">
        <ele>467</ele>
        <time>2020-06-14T11:26:41+02:00</time>
      </trkpt>
      <trkpt lat="43.75745" lon="7.25219">
        <ele>465</ele>
        <time>2020-06-14T11:26:46+02:00</time>
      </trkpt>
      <trkpt lat="43.75736" lon="7.25222">
        <ele>464</ele>
        <time>2020-06-14T11:26:51+02:00</time>
      </trkpt>
      <trkpt lat="43.75723" lon="7.25217">
        <ele>460</ele>
        <time>2020-06-14T11:26:56+02:00</time>
      </trkpt>
      <trkpt lat="43.75712" lon="7.25223">
        <ele>459</ele>
        <time>2020-06-14T11:27:01+02:00</time>
      </trkpt>
      <trkpt lat="43.75706" lon="7.25232">
        <ele>459</ele>
        <time>2020-06-14T11:27:06+02:00</time>
      </trkpt>
      <trkpt lat="43.7569" lon="7.2523">
        <ele>455</ele>
        <time>2020-06-14T11:27:11+02:00</time>
      </trkpt>
      <trkpt lat="43.75686" lon="7.2523">
        <ele>455</ele>
        <time>2020-06-14T11:27:16+02:00</time>
      </trkpt>
      <trkpt lat="43.75682" lon="7.25234">
        <ele>454</ele>
        <time>2020-06-14T11:27:21+02:00</time>
      </trkpt>
      <trkpt lat="43.75674" lon="7.25227">
        <ele>451</ele>
        <time>2020-06-14T11:27:26+02:00</time>
      </trkpt>
      <trkpt lat="43.75661" lon="7.25225">
        <ele>449</ele>
        <time>2020-06-14T11:27:31+02:00</time>
      </trkpt>
      <trkpt lat="43.75658" lon="7.2522">
        <ele>447</ele>
        <time>2020-06-14T11:27:36+02:00</time>
      </trkpt>
      <trkpt lat="43.75658" lon="7.25211">
        <ele>445</ele>
        <time>2020-06-14T11:27:41+02:00</time>
      </trkpt>
      <trkpt lat="43.7566" lon="7.2521">
        <ele>445</ele>
        <time>2020-06-14T11:27:46+02:00</time>
      </trkpt>
      <trkpt lat="43.75661" lon="7.2519">
        <ele>442</ele>
        <time>2020-06-14T11:27:51+02:00</time>
      </trkpt>
      <trkpt lat="43.75672" lon="7.25183">
        <ele>442</ele>
        <time>2020-06-14T11:27:56+02:00</time>
      </trkpt>
      <trkpt lat="43.75675" lon="7.2518">
        <ele>442</ele>
        <time>2020-06-14T11:28:01+02:00</time>
      </trkpt>
      <trkpt lat="43.75675" lon="7.25176">
        <ele>441</ele>
        <time>2020-06-14T11:28:06+02:00</time>
      </trkpt>
      <trkpt lat="43.75671" lon="7.25169">
        <ele>439</ele>
        <time>2020-06-14T11:28:11+02:00</time>
      </trkpt>
      <trkpt lat="43.7566" lon="7.25169">
        <ele>438</ele>
        <time>2020-06-14T11:28:16+02:00</time>
      </trkpt>
      <trkpt lat="43.75648" lon="7.25162">
        <ele>435</ele>
        <time>2020-06-14T11:28:21+02:00</time>
      </trkpt>
      <trkpt lat="43.75638" lon="7.2515">
        <ele>433</ele>
        <time>2020-06-14T11:28:26+02:00</time>
      </trkpt>
      <trkpt lat="43.75618" lon="7.25155">
        <ele>431</ele>
        <time>2020-06-14T11:28:31+02:00</time>
      </trkpt>
      <trkpt lat="43.75613" lon="7.25155">
        <ele>430</ele>
        <time>2020-06-14T11:28:36+02:00</time>
      </trkpt>
      <trkpt lat="43.7561" lon="7.25162">
        <ele>431</ele>
        <time>2020-06-14T11:28:41+02:00</time>
      </trkpt>
      <trkpt lat="43.75602" lon="7.25164">
        <ele>430</ele>
        <time>2020-06-14T11:28:46+02:00</time>
      </trkpt>
      <trkpt lat="43.75597" lon="7.25175">
        <ele>431</ele>
        <time>2020-06-14T11:28:51+02:00</time>
      </trkpt>
      <trkpt lat="43.75583" lon="7.25176">
        <ele>430</ele>
        <time>2020-06-14T11:28:56+02:00</time>
      </trkpt>
      <trkpt lat="43.75559" lon="7.25187">
        <ele>430</ele>
        <time>2020-06-14T11:29:01+02:00</time>
      </trkpt>
      <trkpt lat="43.75553" lon="7.25186">
        <ele>430</ele>
        <time>2020-06-14T11:29:06+02:00</time>
      </trkpt>
      <trkpt lat="43.75547" lon="7.25175">
        <ele>429</ele>
        <time>2020-06-14T11:29:11+02:00</time>
      </trkpt>
      <trkpt lat="43.75541" lon="7.25181">
        <ele>429</ele>
        <time>2020-06-14T11:29:16+02:00</time>
      </trkpt>
      <trkpt lat="43.7553" lon="7.25209">
        <ele>432</ele>
        <time>2020-06-14T11:29:21+02:00</time>
      </trkpt>
      <trkpt lat="43.75513" lon="7.25232">
        <ele>432</ele>
        <time>2020-06-14T11:29:26+02:00</time>
      </trkpt>
      <trkpt lat="43.75494" lon="7.25257">
        <ele>433</ele>
        <time>2020-06-14T11:29:31+02:00</time>
      </trkpt>
      <trkpt lat="43.75491" lon="7.25254">
        <ele>432</ele>
        <time>2020-06-14T11:29:36+02:00</time>
      </trkpt>
      <trkpt lat="43.75489" lon="7.25245">
        <ele>431</ele>
        <time>2020-06-14T11:29:41+02:00</time>
      </trkpt>
      <trkpt lat="43.7549" lon="7.25235">
        <ele>431</ele>
        <time>2020-06-14T11:29:46+02:00</time>
      </trkpt>
      <trkpt lat="43.75489" lon="7.25229">
        <ele>430</ele>
        <time>2020-06-14T11:29:51+02:00</time>
      </trkpt>
      <trkpt lat="43.75486" lon="7.25224">
        <ele>430</ele>
        <time>2020-06-14T11:29:56+02:00</time>
      </trkpt>
      <trkpt lat="43.75473" lon="7.25227">
        <ele>430</ele>
        <time>2020-06-14T11:30:01+02:00</time>
      </trkpt>
      <trkpt lat="43.75434" lon="7.25224">
        <ele>429</ele>
        <time>2020-06-14T11:30:06+02:00</time>
      </trkpt>
      <trkpt lat="43.75409" lon="7.25234">
        <ele>428</ele>
        <time>2020-06-14T11:30:11+02:00</time>
      </trkpt>
      <trkpt lat="43.75385" lon="7.25257">
        <ele>429</ele>
        <time>2020-06-14T11:30:16+02:00</time>
      </trkpt>
      <trkpt lat="43.75376" lon="7.25275">
        <ele>429</ele>
        <time>2020-06-14T11:30:21+02:00</time>
      </trkpt>
      <trkpt lat="43.75374" lon="7.25284">
        <ele>429</ele>
        <time>2020-06-14T11:30:26+02:00</time>
      </trkpt>
      <trkpt lat="43.75362" lon="7.25293">
        <ele>429</ele>
        <time>2020-06-14T11:30:31+02:00</time>
      </trkpt>
      <trkpt lat="43.75347" lon="7.25299">
        <ele>429</ele>
        <time>2020-06-14T11:30:36+02:00</time>
      </trkpt>
      <trkpt lat="43.75344" lon="7.25301">
        <ele>429</ele>
        <time>2020-06-14T11:30:41+02:00</time>
      </trkpt>
      <trkpt lat="43.75337" lon="7.25298">
        <ele>429</ele>
        <time>2020-06-14T11:30:46+02:00</time>
      </trkpt>
      <trkpt lat="43.75309" lon="7.25308">
        <ele>428</ele>
        <time>2020-06-14T11:30:51+02:00</time>
      </trkpt>
      <trkpt lat="43.75296" lon="7.25304">
        <ele>427</ele>
        <time>2020-06-14T11:30:56+02:00</time>
      </trkpt>
      <trkpt lat="43.75285" lon="7.25302">
        <ele>427</ele>
        <time>2020-06-14T11:31:01+02:00</time>
      </trkpt>
      <trkpt lat="43.7524" lon="7.2529">
        <ele>426</ele>
        <time>2020-06-14T11:31:06+02:00</time>
      </trkpt>
      <trkpt lat="43.75229" lon="7.25343">
        <ele>425</ele>
        <time>2020-06-14T11:31:11+02:00</time>
      </trkpt>
      <trkpt lat="43.75193" lon="7.25359">
        <ele>423</ele>
        <time>2020-06-14T11:31:16+02:00</time>
      </trkpt>
      <trkpt lat="43.75177" lon="7.25375">
        <ele>422</ele>
        <time>2020-06-14T11:31:21+02:00</time>
      </trkpt>
      <trkpt lat="43.75169" lon="7.25377">
        <ele>421</ele>
        <time>2020-06-14T11:31:26+02:00</time>
      </trkpt>
      <trkpt lat="43.75132" lon="7.25441">
        <ele>417</ele>
        <time>2020-06-14T11:31:31+02:00</time>
      </trkpt>
      <trkpt lat="43.75128" lon="7.25453">
        <ele>416</ele>
        <time>2020-06-14T11:31:36+02:00</time>
      </trkpt>
      <trkpt lat="43.75122" lon="7.25463">
        <ele>416</ele>
        <time>2020-06-14T11:31:41+02:00</time>
      </trkpt>
      <trkpt lat="43.75118" lon="7.25476">
        <ele>415</ele>
        <time>2020-06-14T11:31:46+02:00</time>
      </trkpt>
      <trkpt lat="43.75109" lon="7.25512">
        <ele>416</ele>
        <time>2020-06-14T11:31:51+02:00</time>
      </trkpt>
      <trkpt lat="43.75085" lon="7.25526">
        <ele>414</ele>
        <time>2020-06-14T11:31:56+02:00</time>
      </trkpt>
      <trkpt lat="43.75079" lon="7.25525">
        <ele>413</ele>
        <time>2020-06-14T11:32:01+02:00</time>
      </trkpt>
      <trkpt lat="43.75066" lon="7.25528">
        <ele>412</ele>
        <time>2020-06-14T11:32:06+02:00</time>
      </trkpt>
      <trkpt lat="43.75062" lon="7.25525">
        <ele>412</ele>
        <time>2020-06-14T11:32:11+02:00</time>
      </trkpt>
      <trkpt lat="43.7505" lon="7.25529">
        <ele>411</ele>
        <time>2020-06-14T11:32:16+02:00</time>
      </trkpt>
      <trkpt lat="43.75036" lon="7.25532">
        <ele>410</ele>
        <time>2020-06-14T11:32:21+02:00</time>
      </trkpt>
      <trkpt lat="43.7503" lon="7.25536">
        <ele>410</ele>
        <time>2020-06-14T11:32:26+02:00</time>
      </trkpt>
      <trkpt lat="43.75016" lon="7.25537">
        <ele>409</ele>
        <time>2020-06-14T11:32:31+02:00</time>
      </trkpt>
      <trkpt lat="43.74992" lon="7.25547">
        <ele>408</ele>
        <time>2020-06-14T11:32:36+02:00</time>
      </trkpt>
      <trkpt lat="43.74985" lon="7.25543">
        <ele>408</ele>
        <time>2020-06-14T11:32:41+02:00</time>
      </trkpt>
      <trkpt lat="43.74972" lon="7.25547">
        <ele>408</ele>
        <time>2020-06-14T11:32:46+02:00</time>
      </trkpt>
      <trkpt lat="43.74967" lon="7.25545">
        <ele>407</ele>
        <time>2020-06-14T11:32:51+02:00</time>
      </trkpt>
      <trkpt lat="43.74958" lon="7.25546">
        <ele>407</ele>
        <time>2020-06-14T11:32:56+02:00</time>
      </trkpt>
      <trkpt lat="43.74955" lon="7.25551">
        <ele>408</ele>
        <time>2020-06-14T11:33:01+02:00</time>
      </trkpt>
      <trkpt lat="43.74942" lon="7.25554">
        <ele>408</ele>
        <time>2020-06-14T11:33:06+02:00</time>
      </trkpt>
      <trkpt lat="43.74912" lon="7.25557">
        <ele>407</ele>
        <time>2020-06-14T11:33:11+02:00</time>
      </trkpt>
      <trkpt lat="43.74897" lon="7.25561">
        <ele>408</ele>
        <time>2020-06-14T11:33:16+02:00</time>
      </trkpt>
      <trkpt lat="43.74893" lon="7.25559">
        <ele>408</ele>
        <time>2020-06-14T11:33:21+02:00</time>
      </trkpt>
      <trkpt lat="43.74884" lon="7.25563">
        <ele>408</ele>
        <time>2020-06-14T11:33:26+02:00</time>
      </trkpt>
      <trkpt lat="43.74877" lon="7.25564">
        <ele>408</ele>
        <time>2020-06-14T11:33:31+02:00</time>
      </trkpt>
      <trkpt lat="43.74873" lon="7.25562">
        <ele>408</ele>
        <time>2020-06-14T11:33:36+02:00</time>
      </trkpt>
      <trkpt lat="43.74853" lon="7.2556">
        <ele>407</ele>
        <time>2020-06-14T11:33:41+02:00</time>
      </trkpt>
      <trkpt lat="43.74847" lon="7.25562">
        <ele>407</ele>
        <time>2020-06-14T11:33:46+02:00</time>
      </trkpt>
      <trkpt lat="43.74834" lon="7.25563">
        <ele>407</ele>
        <time>2020-06-14T11:33:51+02:00</time>
      </trkpt>
      <trkpt lat="43.74823" lon="7.25566">
        <ele>407</ele>
        <time>2020-06-14T11:33:56+02:00</time>
      </trkpt>
      <trkpt lat="43.74818" lon="7.25564">
        <ele>407</ele>
        <time>2020-06-14T11:34:01+02:00</time>
      </trkpt>
      <trkpt lat="43.74813" lon="7.25567">
        <ele>407</ele>
        <time>2020-06-14T11:34:06+02:00</time>
      </trkpt>
      <trkpt lat="43.74806" lon="7.25566">
        <ele>407</ele>
        <time>2020-06-14T11:34:11+02:00</time>
      </trkpt>
      <trkpt lat="43.74803" lon="7.2557">
        <ele>407</ele>
        <time>2020-06-14T11:34:16+02:00</time>
      </trkpt>
      <trkpt lat="43.74779" lon="7.2557">
        <ele>406</ele>
        <time>2020-06-14T11:34:21+02:00</time>
      </trkpt>
      <trkpt lat="43.74775" lon="7.25574">
        <ele>406</ele>
        <time>2020-06-14T11:34:26+02:00</time>
      </trkpt>
      <trkpt lat="43.74765" lon="7.25573">
        <ele>406</ele>
        <time>2020-06-14T11:34:31+02:00</time>
      </trkpt>
      <trkpt lat="43.74756" lon="7.25577">
        <ele>406</ele>
        <time>2020-06-14T11:34:36+02:00</time>
      </trkpt>
      <trkpt lat="43.74748" lon="7.25576">
        <ele>406</ele>
        <time>2020-06-14T11:34:41+02:00</time>
      </trkpt>
      <trkpt lat="43.74739" lon="7.25571">
        <ele>405</ele>
        <time>2020-06-14T11:34:46+02:00</time>
      </trkpt>
      <trkpt lat="43.74706" lon="7.25566">
        <ele>403</ele>
        <time>2020-06-14T11:34:51+02:00</time>
      </trkpt>
      <trkpt lat="43.74688" lon="7.25566">
        <ele>402</ele>
        <time>2020-06-14T11:34:56+02:00</time>
      </trkpt>
      <trkpt lat="43.74663" lon="7.25585">
        <ele>403</ele>
        <time>2020-06-14T11:35:01+02:00</time>
      </trkpt>
      <trkpt lat="43.74652" lon="7.2559">
        <ele>403</ele>
        <time>2020-06-14T11:35:06+02:00</time>
      </trkpt>
      <trkpt lat="43.74639" lon="7.25589">
        <ele>402</ele>
        <time>2020-06-14T11:35:11+02:00</time>
      </trkpt>
      <trkpt lat="43.74634" lon="7.25587">
        <ele>401</ele>
        <time>2020-06-14T11:35:16+02:00</time>
      </trkpt>
      <trkpt lat="43.74623" lon="7.25597">
        <ele>402</ele>
        <time>2020-06-14T11:35:21+02:00</time>
      </trkpt>
      <trkpt lat="43.74587" lon="7.25599">
        <ele>400</ele>
        <time>2020-06-14T11:35:26+02:00</time>
      </trkpt>
      <trkpt lat="43.74571" lon="7.25605">
        <ele>399</ele>
        <time>2020-06-14T11:35:31+02:00</time>
      </trkpt>
      <trkpt lat="43.7456" lon="7.25619">
        <ele>399</ele>
        <time>2020-06-14T11:35:36+02:00</time>
      </trkpt>
      <trkpt lat="43.7454" lon="7.2567">
        <ele>399</ele>
        <time>2020-06-14T11:35:41+02:00</time>
      </trkpt>
      <trkpt lat="43.74536" lon="7.25683">
        <ele>400</ele>
        <time>2020-06-14T11:35:46+02:00</time>
      </trkpt>
      <trkpt lat="43.74533" lon="7.25697">
        <ele>402</ele>
        <time>2020-06-14T11:35:51+02:00</time>
      </trkpt>
      <trkpt lat="43.74525" lon="7.25714">
        <ele>402</ele>
        <time>2020-06-14T11:35:56+02:00</time>
      </trkpt>
      <trkpt lat="43.74508" lon="7.25708">
        <ele>399</ele>
        <time>2020-06-14T11:36:01+02:00</time>
      </trkpt>
      <trkpt lat="43.74498" lon="7.25698">
        <ele>396</ele>
        <time>2020-06-14T11:36:06+02:00</time>
      </trkpt>
      <trkpt lat="43.74483" lon="7.25693">
        <ele>393</ele>
        <time>2020-06-14T11:36:11+02:00</time>
      </trkpt>
      <trkpt lat="43.74471" lon="7.25684">
        <ele>391</ele>
        <time>2020-06-14T11:36:16+02:00</time>
      </trkpt>
      <trkpt lat="43.74451" lon="7.2568">
        <ele>388</ele>
        <time>2020-06-14T11:36:21+02:00</time>
      </trkpt>
      <trkpt lat="43.74444" lon="7.2568">
        <ele>387</ele>
        <time>2020-06-14T11:36:26+02:00</time>
      </trkpt>
      <trkpt lat="43.74434" lon="7.25678">
        <ele>385</ele>
        <time>2020-06-14T11:36:31+02:00</time>
      </trkpt>
      <trkpt lat="43.74427" lon="7.25697">
        <ele>385</ele>
        <time>2020-06-14T11:36:36+02:00</time>
      </trkpt>
      <trkpt lat="43.74422" lon="7.25717">
        <ele>385</ele>
        <time>2020-06-14T11:36:41+02:00</time>
      </trkpt>
      <trkpt lat="43.74427" lon="7.25698">
        <ele>385</ele>
        <time>2020-06-14T11:36:46+02:00</time>
      </trkpt>
      <trkpt lat="43.74434" lon="7.25678">
        <ele>385</ele>
        <time>2020-06-14T11:36:51+02:00</time>
      </trkpt>
      <trkpt lat="43.74413" lon="7.2566">
        <ele>383</ele>
        <time>2020-06-14T11:36:56+02:00</time>
      </trkpt>
      <trkpt lat="43.74403" lon="7.25642">
        <ele>384</ele>
        <time>2020-06-14T11:37:01+02:00</time>
      </trkpt>
      <trkpt lat="43.74388" lon="7.2565">
        <ele>383</ele>
        <time>2020-06-14T11:37:06+02:00</time>
      </trkpt>
      <trkpt lat="43.74351" lon="7.25644">
        <ele>382</ele>
        <time>2020-06-14T11:37:11+02:00</time>
      </trkpt>
      <trkpt lat="43.74338" lon="7.25639">
        <ele>382</ele>
        <time>2020-06-14T11:37:16+02:00</time>
      </trkpt>
      <trkpt lat="43.74327" lon="7.25624">
        <ele>382</ele>
        <time>2020-06-14T11:37:21+02:00</time>
      </trkpt>
      <trkpt lat="43.74308" lon="7.25622">
        <ele>380</ele>
        <time>2020-06-14T11:37:26+02:00</time>
      </trkpt>
      <trkpt lat="43.74288" lon="7.25621">
        <ele>379</ele>
        <time>2020-06-14T11:37:31+02:00</time>
      </trkpt>
      <trkpt lat="43.74252" lon="7.25651">
        <ele>376</ele>
        <time>2020-06-14T11:37:36+02:00</time>
      </trkpt>
      <trkpt lat="43.74217" lon="7.2568">
        <ele>368</ele>
        <time>2020-06-14T11:37:41+02:00</time>
      </trkpt>
      <trkpt lat="43.7421" lon="7.25686">
        <ele>366</ele>
        <time>2020-06-14T11:37:46+02:00</time>
      </trkpt>
      <trkpt lat="43.74206" lon="7.2569">
        <ele>365</ele>
        <time>2020-06-14T11:37:51+02:00</time>
      </trkpt>
      <trkpt lat="43.74194" lon="7.25708">
        <ele>360</ele>
        <time>2020-06-14T11:37:56+02:00</time>
      </trkpt>
      <trkpt lat="43.7419" lon="7.25758">
        <ele>352</ele>
        <time>2020-06-14T11:38:01+02:00</time>
      </trkpt>
    </trkseg>
  </trk>
</gpx>